Check out our new PWSWeather beta!
PWSweather.com
Personal Weather Stations
Station Observations
ANTHEMNP
Anthem North Parkside, Anthem, AZ 85086

Anthem North ParksideAnthem, AZ 85086

Lat: 33.876464, Lon: -112.13861199999997

Elevation: 1930

Station Type: Davis Vantage Vue with Pro 2 console

http://www.azjerry.com/ANPW/wxindex.php

High Low Average
Temperature 99.6°F37.6°C 80.4°F26.9°C 89.1°F31.7°C
Dew Point 64.0°F17.8°C 57.0°F13.9°C 59.7°F15.4°C
Winds 6.7 mph 10.8 kmh Calm Calm 3.0 mph S4.8 kmh S
Wind Gusts 16.0 mph25.7 kmh -- 8.0 mph12.9 kmh
Humidity 49% 26% 38%
Pressure 29.89 in1012.2 mb 29.75 in1007.5 mb -
Precipitation 0.00 in0.0 mm - -
Hour Temp Dew Point Humidity Winds Wind Gusts Pressure Precip Precip Rate Daily Precip Total
12:00 AM 84.6°F29.2°C 58.0°F14.4°C 40% 3.0 mph N4.8 kmh N 6.0 mph9.7 kmh 29.80 in1009.1 mb 0.00 in0.0 mm 0.00 in0.0 mm 0.00 in0.0 mm
12:10 AM 84.3°F29.1°C 57.0°F13.9°C 40% 2.6 mph NE4.2 kmh NE 5.0 mph8.0 kmh 29.80 in1009.1 mb 0.00 in0.0 mm 0.00 in0.0 mm 0.00 in0.0 mm
12:20 AM 84.4°F29.1°C 58.0°F14.4°C 40% 3.2 mph N5.1 kmh N 5.0 mph8.0 kmh 29.80 in1009.1 mb 0.00 in0.0 mm 0.00 in0.0 mm 0.00 in0.0 mm
12:30 AM 84.4°F29.1°C 58.0°F14.4°C 40% 2.5 mph N4.0 kmh N 6.0 mph9.7 kmh 29.80 in1009.1 mb 0.00 in0.0 mm 0.00 in0.0 mm 0.00 in0.0 mm
12:40 AM 84.5°F29.2°C 58.0°F14.4°C 40% 2.1 mph NNE3.4 kmh NNE 4.0 mph6.4 kmh 29.81 in1009.5 mb 0.00 in0.0 mm 0.00 in0.0 mm 0.00 in0.0 mm
12:50 AM 84.3°F29.1°C 57.0°F13.9°C 40% 0.6 mph N1.0 kmh N 2.0 mph3.2 kmh 29.81 in1009.5 mb 0.00 in0.0 mm 0.00 in0.0 mm 0.00 in0.0 mm
01:00 AM 83.7°F28.7°C 58.0°F14.4°C 41% 1.4 mph NNE2.3 kmh NNE 4.0 mph6.4 kmh 29.81 in1009.5 mb 0.00 in0.0 mm 0.00 in0.0 mm 0.00 in0.0 mm
01:10 AM 83.9°F28.8°C 58.0°F14.4°C 41% 2.7 mph N4.3 kmh N 6.0 mph9.7 kmh 29.81 in1009.5 mb 0.00 in0.0 mm 0.00 in0.0 mm 0.00 in0.0 mm
01:20 AM 83.6°F28.7°C 57.0°F13.9°C 41% 3.4 mph NNE5.5 kmh NNE 8.0 mph12.9 kmh 29.81 in1009.5 mb 0.00 in0.0 mm 0.00 in0.0 mm 0.00 in0.0 mm
01:30 AM 83.3°F28.5°C 58.0°F14.4°C 42% 3.5 mph NE5.6 kmh NE 12.0 mph19.3 kmh 29.81 in1009.5 mb 0.00 in0.0 mm 0.00 in0.0 mm 0.00 in0.0 mm
01:40 AM 83.9°F28.8°C 58.0°F14.4°C 41% 6.3 mph NNE10.1 kmh NNE 13.0 mph20.9 kmh 29.81 in1009.5 mb 0.00 in0.0 mm 0.00 in0.0 mm 0.00 in0.0 mm
01:50 AM 83.7°F28.7°C 58.0°F14.4°C 41% 6.3 mph N10.1 kmh N 11.0 mph17.7 kmh 29.81 in1009.5 mb 0.00 in0.0 mm 0.00 in0.0 mm 0.00 in0.0 mm
02:00 AM 83.7°F28.7°C 58.0°F14.4°C 41% 5.6 mph NNE9.0 kmh NNE 10.0 mph16.1 kmh 29.80 in1009.1 mb 0.00 in0.0 mm 0.00 in0.0 mm 0.00 in0.0 mm
02:10 AM 83.6°F28.7°C 57.0°F13.9°C 41% 5.0 mph NE8.0 kmh NE 9.0 mph14.5 kmh 29.80 in1009.1 mb 0.00 in0.0 mm 0.00 in0.0 mm 0.00 in0.0 mm
02:20 AM 83.3°F28.5°C 58.0°F14.4°C 42% 3.6 mph N5.8 kmh N 7.0 mph11.3 kmh 29.80 in1009.1 mb 0.00 in0.0 mm 0.00 in0.0 mm 0.00 in0.0 mm
02:30 AM 83.2°F28.4°C 58.0°F14.4°C 42% 2.0 mph N3.2 kmh N 5.0 mph8.0 kmh 29.80 in1009.1 mb 0.00 in0.0 mm 0.00 in0.0 mm 0.00 in0.0 mm
02:40 AM 83.4°F28.6°C 57.0°F13.9°C 41% 2.2 mph NNE3.5 kmh NNE 4.0 mph6.4 kmh 29.80 in1009.1 mb 0.00 in0.0 mm 0.00 in0.0 mm 0.00 in0.0 mm
02:50 AM 83.4°F28.6°C 57.0°F13.9°C 41% 3.7 mph N6.0 kmh N 7.0 mph11.3 kmh 29.80 in1009.1 mb 0.00 in0.0 mm 0.00 in0.0 mm 0.00 in0.0 mm
03:00 AM 83.3°F28.5°C 57.0°F13.9°C 41% 4.1 mph NE6.6 kmh NE 8.0 mph12.9 kmh 29.80 in1009.1 mb 0.00 in0.0 mm 0.00 in0.0 mm 0.00 in0.0 mm
03:10 AM 82.8°F28.2°C 57.0°F13.9°C 42% 2.4 mph N3.9 kmh N 5.0 mph8.0 kmh 29.80 in1009.1 mb 0.00 in0.0 mm 0.00 in0.0 mm 0.00 in0.0 mm
03:20 AM 82.5°F28.1°C 58.0°F14.4°C 43% 3.4 mph N5.5 kmh N 7.0 mph11.3 kmh 29.80 in1009.1 mb 0.00 in0.0 mm 0.00 in0.0 mm 0.00 in0.0 mm
03:30 AM 82.2°F27.9°C 57.0°F13.9°C 43% 2.4 mph NNE3.9 kmh NNE 5.0 mph8.0 kmh 29.80 in1009.1 mb 0.00 in0.0 mm 0.00 in0.0 mm 0.00 in0.0 mm
03:40 AM 82.3°F27.9°C 58.0°F14.4°C 43% 2.5 mph N4.0 kmh N 8.0 mph12.9 kmh 29.80 in1009.1 mb 0.00 in0.0 mm 0.00 in0.0 mm 0.00 in0.0 mm
03:50 AM 82.4°F28.0°C 58.0°F14.4°C 43% 5.6 mph WNW9.0 kmh WNW 10.0 mph16.1 kmh 29.80 in1009.1 mb 0.00 in0.0 mm 0.00 in0.0 mm 0.00 in0.0 mm
04:00 AM 81.8°F27.7°C 57.0°F13.9°C 43% 4.7 mph N7.6 kmh N 10.0 mph16.1 kmh 29.80 in1009.1 mb 0.00 in0.0 mm 0.00 in0.0 mm 0.00 in0.0 mm
04:10 AM 82.1°F27.8°C 57.0°F13.9°C 43% 5.3 mph NNE8.5 kmh NNE 11.0 mph17.7 kmh 29.80 in1009.1 mb 0.00 in0.0 mm 0.00 in0.0 mm 0.00 in0.0 mm
04:20 AM 82.1°F27.8°C 57.0°F13.9°C 43% 5.2 mph NNE8.4 kmh NNE 11.0 mph17.7 kmh 29.80 in1009.1 mb 0.00 in0.0 mm 0.00 in0.0 mm 0.00 in0.0 mm
04:30 AM 82.5°F28.1°C 57.0°F13.9°C 42% 2.2 mph NE3.5 kmh NE 5.0 mph8.0 kmh 29.81 in1009.5 mb 0.00 in0.0 mm 0.00 in0.0 mm 0.00 in0.0 mm
04:40 AM 82.1°F27.8°C 57.0°F13.9°C 43% 1.9 mph N3.1 kmh N 4.0 mph6.4 kmh 29.81 in1009.5 mb 0.00 in0.0 mm 0.00 in0.0 mm 0.00 in0.0 mm
04:50 AM 82.1°F27.8°C 57.0°F13.9°C 43% 3.8 mph NE6.1 kmh NE 8.0 mph12.9 kmh 29.81 in1009.5 mb 0.00 in0.0 mm 0.00 in0.0 mm 0.00 in0.0 mm
05:00 AM 82.0°F27.8°C 57.0°F13.9°C 43% 4.6 mph NNE7.4 kmh NNE 9.0 mph14.5 kmh 29.82 in1009.8 mb 0.00 in0.0 mm 0.00 in0.0 mm 0.00 in0.0 mm
05:10 AM 81.7°F27.6°C 57.0°F13.9°C 43% 4.7 mph N7.6 kmh N 9.0 mph14.5 kmh 29.82 in1009.8 mb 0.00 in0.0 mm 0.00 in0.0 mm 0.00 in0.0 mm
05:20 AM 81.6°F27.6°C 58.0°F14.4°C 44% 3.3 mph NNE5.3 kmh NNE 6.0 mph9.7 kmh 29.82 in1009.8 mb 0.00 in0.0 mm 0.00 in0.0 mm 0.00 in0.0 mm
05:30 AM 81.1°F27.3°C 57.0°F13.9°C 44% 2.4 mph NNE3.9 kmh NNE 6.0 mph9.7 kmh 29.82 in1009.8 mb 0.00 in0.0 mm 0.00 in0.0 mm 0.00 in0.0 mm
05:40 AM 80.8°F27.1°C 57.0°F13.9°C 45% 2.4 mph N3.9 kmh N 7.0 mph11.3 kmh 29.82 in1009.8 mb 0.00 in0.0 mm 0.00 in0.0 mm 0.00 in0.0 mm
05:50 AM 80.7°F27.1°C 57.0°F13.9°C 45% 4.3 mph N6.9 kmh N 8.0 mph12.9 kmh 29.83 in1010.2 mb 0.00 in0.0 mm 0.00 in0.0 mm 0.00 in0.0 mm
06:00 AM 80.4°F26.9°C 57.0°F13.9°C 45% 2.9 mph NNE4.7 kmh NNE 6.0 mph9.7 kmh 29.83 in1010.2 mb 0.00 in0.0 mm 0.00 in0.0 mm 0.00 in0.0 mm
06:10 AM 80.6°F27.0°C 57.0°F13.9°C 45% 4.0 mph NE6.4 kmh NE 12.0 mph19.3 kmh 29.83 in1010.2 mb 0.00 in0.0 mm 0.00 in0.0 mm 0.00 in0.0 mm
06:20 AM 81.0°F27.2°C 57.0°F13.9°C 44% 5.0 mph N8.0 kmh N 11.0 mph17.7 kmh 29.84 in1010.5 mb 0.00 in0.0 mm 0.00 in0.0 mm 0.00 in0.0 mm
06:30 AM 81.1°F27.3°C 57.0°F13.9°C 44% 5.8 mph N9.3 kmh N 11.0 mph17.7 kmh 29.84 in1010.5 mb 0.00 in0.0 mm 0.00 in0.0 mm 0.00 in0.0 mm
06:40 AM 81.3°F27.4°C 57.0°F13.9°C 44% 4.8 mph N7.7 kmh N 8.0 mph12.9 kmh 29.84 in1010.5 mb 0.00 in0.0 mm 0.00 in0.0 mm 0.00 in0.0 mm
06:50 AM 81.8°F27.7°C 58.0°F14.4°C 44% 2.7 mph N4.3 kmh N 5.0 mph8.0 kmh 29.85 in1010.8 mb 0.00 in0.0 mm 0.00 in0.0 mm 0.00 in0.0 mm
07:00 AM 82.4°F28.0°C 58.0°F14.4°C 43% 2.8 mph NNE4.5 kmh NNE 6.0 mph9.7 kmh 29.85 in1010.8 mb 0.00 in0.0 mm 0.00 in0.0 mm 0.00 in0.0 mm
07:10 AM 83.0°F28.3°C 58.0°F14.4°C 42% 1.7 mph NE2.7 kmh NE 4.0 mph6.4 kmh 29.85 in1010.8 mb 0.00 in0.0 mm 0.00 in0.0 mm 0.00 in0.0 mm
07:20 AM 83.6°F28.7°C 59.0°F15.0°C 43% 1.1 mph SE1.8 kmh SE 3.0 mph4.8 kmh 29.86 in1011.2 mb 0.00 in0.0 mm 0.00 in0.0 mm 0.00 in0.0 mm
07:30 AM 83.3°F28.5°C 59.0°F15.0°C 44% 0.3 mph SSW0.5 kmh SSW 2.0 mph3.2 kmh 29.86 in1011.2 mb 0.00 in0.0 mm 0.00 in0.0 mm 0.00 in0.0 mm
07:40 AM 84.0°F28.9°C 59.0°F15.0°C 43% 0.2 mph SSW0.3 kmh SSW 1.0 mph1.6 kmh 29.87 in1011.5 mb 0.00 in0.0 mm 0.00 in0.0 mm 0.00 in0.0 mm
07:50 AM 84.9°F29.4°C 61.0°F16.1°C 44% Calm Calm -- 29.87 in1011.5 mb 0.00 in0.0 mm 0.00 in0.0 mm 0.00 in0.0 mm
08:00 AM 85.3°F29.6°C 59.0°F15.0°C 41% 0.6 mph NNE1.0 kmh NNE 2.0 mph3.2 kmh 29.87 in1011.5 mb 0.00 in0.0 mm 0.00 in0.0 mm 0.00 in0.0 mm
08:10 AM 85.8°F29.9°C 59.0°F15.0°C 40% 0.7 mph N1.1 kmh N 3.0 mph4.8 kmh 29.88 in1011.9 mb 0.00 in0.0 mm 0.00 in0.0 mm 0.00 in0.0 mm
08:20 AM 86.3°F30.2°C 59.0°F15.0°C 39% 0.8 mph N1.3 kmh N 3.0 mph4.8 kmh 29.88 in1011.9 mb 0.00 in0.0 mm 0.00 in0.0 mm 0.00 in0.0 mm
08:30 AM 86.7°F30.4°C 59.0°F15.0°C 39% 0.5 mph NNE0.8 kmh NNE 2.0 mph3.2 kmh 29.88 in1011.9 mb 0.00 in0.0 mm 0.00 in0.0 mm 0.00 in0.0 mm
08:40 AM 87.6°F30.9°C 60.0°F15.6°C 40% 0.3 mph NNE0.5 kmh NNE 2.0 mph3.2 kmh 29.88 in1011.9 mb 0.00 in0.0 mm 0.00 in0.0 mm 0.00 in0.0 mm
08:50 AM 88.6°F31.4°C 61.0°F16.1°C 40% 0.4 mph SW0.6 kmh SW 3.0 mph4.8 kmh 29.88 in1011.9 mb 0.00 in0.0 mm 0.00 in0.0 mm 0.00 in0.0 mm
09:00 AM 89.1°F31.7°C 61.0°F16.1°C 39% 0.9 mph S1.4 kmh S 6.0 mph9.7 kmh 29.88 in1011.9 mb 0.00 in0.0 mm 0.00 in0.0 mm 0.00 in0.0 mm
09:10 AM 89.1°F31.7°C 61.0°F16.1°C 39% 0.4 mph SSW0.6 kmh SSW 4.0 mph6.4 kmh 29.88 in1011.9 mb 0.00 in0.0 mm 0.00 in0.0 mm 0.00 in0.0 mm
09:20 AM 89.0°F31.7°C 61.0°F16.1°C 39% 0.8 mph ESE1.3 kmh ESE 5.0 mph8.0 kmh 29.88 in1011.9 mb 0.00 in0.0 mm 0.00 in0.0 mm 0.00 in0.0 mm
09:30 AM 88.9°F31.6°C 61.0°F16.1°C 39% 1.2 mph ESE1.9 kmh ESE 6.0 mph9.7 kmh 29.89 in1012.2 mb 0.00 in0.0 mm 0.00 in0.0 mm 0.00 in0.0 mm
09:40 AM 89.4°F31.9°C 61.0°F16.1°C 38% 0.9 mph S1.4 kmh S 5.0 mph8.0 kmh 29.89 in1012.2 mb 0.00 in0.0 mm 0.00 in0.0 mm 0.00 in0.0 mm
09:50 AM 89.7°F32.1°C 61.0°F16.1°C 38% 1.7 mph W2.7 kmh W 5.0 mph8.0 kmh 29.88 in1011.9 mb 0.00 in0.0 mm 0.00 in0.0 mm 0.00 in0.0 mm
10:00 AM 90.3°F32.4°C 61.0°F16.1°C 37% 1.3 mph SW2.1 kmh SW 6.0 mph9.7 kmh 29.88 in1011.9 mb 0.00 in0.0 mm 0.00 in0.0 mm 0.00 in0.0 mm
10:10 AM 90.7°F32.6°C 61.0°F16.1°C 37% 1.7 mph SW2.7 kmh SW 7.0 mph11.3 kmh 29.88 in1011.9 mb 0.00 in0.0 mm 0.00 in0.0 mm 0.00 in0.0 mm
10:20 AM 90.9°F32.7°C 60.0°F15.6°C 36% 1.5 mph ESE2.4 kmh ESE 5.0 mph8.0 kmh 29.88 in1011.9 mb 0.00 in0.0 mm 0.00 in0.0 mm 0.00 in0.0 mm
10:30 AM 91.6°F33.1°C 60.0°F15.6°C 35% 0.9 mph SSW1.4 kmh SSW 4.0 mph6.4 kmh 29.88 in1011.9 mb 0.00 in0.0 mm 0.00 in0.0 mm 0.00 in0.0 mm
10:40 AM 92.6°F33.7°C 60.0°F15.6°C 33% 2.3 mph SW3.7 kmh SW 9.0 mph14.5 kmh 29.88 in1011.9 mb 0.00 in0.0 mm 0.00 in0.0 mm 0.00 in0.0 mm
10:50 AM 92.7°F33.7°C 60.0°F15.6°C 33% 1.9 mph S3.1 kmh S 6.0 mph9.7 kmh 29.88 in1011.9 mb 0.00 in0.0 mm 0.00 in0.0 mm 0.00 in0.0 mm
11:00 AM 93.4°F34.1°C 60.0°F15.6°C 33% 1.3 mph NNW2.1 kmh NNW 5.0 mph8.0 kmh 29.88 in1011.9 mb 0.00 in0.0 mm 0.00 in0.0 mm 0.00 in0.0 mm
11:10 AM 93.4°F34.1°C 60.0°F15.6°C 33% 1.1 mph W1.8 kmh W 5.0 mph8.0 kmh 29.88 in1011.9 mb 0.00 in0.0 mm 0.00 in0.0 mm 0.00 in0.0 mm
11:20 AM 94.5°F34.7°C 61.0°F16.1°C 33% 0.6 mph SE1.0 kmh SE 7.0 mph11.3 kmh 29.87 in1011.5 mb 0.00 in0.0 mm 0.00 in0.0 mm 0.00 in0.0 mm
11:30 AM 94.3°F34.6°C 60.0°F15.6°C 32% 1.5 mph SE2.4 kmh SE 6.0 mph9.7 kmh 29.87 in1011.5 mb 0.00 in0.0 mm 0.00 in0.0 mm 0.00 in0.0 mm
11:40 AM 94.5°F34.7°C 60.0°F15.6°C 31% 2.0 mph SSW3.2 kmh SSW 7.0 mph11.3 kmh 29.87 in1011.5 mb 0.00 in0.0 mm 0.00 in0.0 mm 0.00 in0.0 mm
11:50 AM 95.3°F35.2°C 59.0°F15.0°C 30% 1.1 mph S1.8 kmh S 10.0 mph16.1 kmh 29.87 in1011.5 mb 0.00 in0.0 mm 0.00 in0.0 mm 0.00 in0.0 mm
12:00 PM 94.8°F34.9°C 60.0°F15.6°C 31% 1.8 mph SE2.9 kmh SE 7.0 mph11.3 kmh 29.86 in1011.2 mb 0.00 in0.0 mm 0.00 in0.0 mm 0.00 in0.0 mm
12:10 PM 95.0°F35.0°C 59.0°F15.0°C 30% 2.5 mph SW4.0 kmh SW 8.0 mph12.9 kmh 29.86 in1011.2 mb 0.00 in0.0 mm 0.00 in0.0 mm 0.00 in0.0 mm
12:20 PM 94.4°F34.7°C 59.0°F15.0°C 30% 2.5 mph SW4.0 kmh SW 10.0 mph16.1 kmh 29.86 in1011.2 mb 0.00 in0.0 mm 0.00 in0.0 mm 0.00 in0.0 mm
12:30 PM 94.7°F34.8°C 59.0°F15.0°C 30% 2.3 mph S3.7 kmh S 7.0 mph11.3 kmh 29.85 in1010.8 mb 0.00 in0.0 mm 0.00 in0.0 mm 0.00 in0.0 mm
12:40 PM 95.5°F35.3°C 60.0°F15.6°C 30% 2.4 mph SSW3.9 kmh SSW 7.0 mph11.3 kmh 29.85 in1010.8 mb 0.00 in0.0 mm 0.00 in0.0 mm 0.00 in0.0 mm
12:50 PM 96.0°F35.6°C 60.0°F15.6°C 30% 1.9 mph WSW3.1 kmh WSW 8.0 mph12.9 kmh 29.85 in1010.8 mb 0.00 in0.0 mm 0.00 in0.0 mm 0.00 in0.0 mm
01:00 PM 96.8°F36.0°C 59.0°F15.0°C 28% 2.0 mph SSW3.2 kmh SSW 6.0 mph9.7 kmh 29.84 in1010.5 mb 0.00 in0.0 mm 0.00 in0.0 mm 0.00 in0.0 mm
01:10 PM 97.6°F36.4°C 58.0°F14.4°C 27% 1.3 mph SSE2.1 kmh SSE 7.0 mph11.3 kmh 29.83 in1010.2 mb 0.00 in0.0 mm 0.00 in0.0 mm 0.00 in0.0 mm
01:20 PM 97.7°F36.5°C 57.0°F13.9°C 26% 2.9 mph SW4.7 kmh SW 11.0 mph17.7 kmh 29.83 in1010.2 mb 0.00 in0.0 mm 0.00 in0.0 mm 0.00 in0.0 mm
01:30 PM 97.9°F36.6°C 59.0°F15.0°C 27% 1.1 mph S1.8 kmh S 5.0 mph8.0 kmh 29.82 in1009.8 mb 0.00 in0.0 mm 0.00 in0.0 mm 0.00 in0.0 mm
01:40 PM 98.4°F36.9°C 59.0°F15.0°C 27% 2.1 mph SSW3.4 kmh SSW 7.0 mph11.3 kmh 29.82 in1009.8 mb 0.00 in0.0 mm 0.00 in0.0 mm 0.00 in0.0 mm
01:50 PM 98.6°F37.0°C 58.0°F14.4°C 26% 2.6 mph SW4.2 kmh SW 6.0 mph9.7 kmh 29.82 in1009.8 mb 0.00 in0.0 mm 0.00 in0.0 mm 0.00 in0.0 mm
02:00 PM 99.1°F37.3°C 59.0°F15.0°C 26% 1.3 mph N2.1 kmh N 5.0 mph8.0 kmh 29.81 in1009.5 mb 0.00 in0.0 mm 0.00 in0.0 mm 0.00 in0.0 mm
02:10 PM 98.2°F36.8°C 58.0°F14.4°C 26% 2.2 mph SE3.5 kmh SE 11.0 mph17.7 kmh 29.81 in1009.5 mb 0.00 in0.0 mm 0.00 in0.0 mm 0.00 in0.0 mm
02:20 PM 99.2°F37.3°C 59.0°F15.0°C 26% 3.4 mph SW5.5 kmh SW 11.0 mph17.7 kmh 29.80 in1009.1 mb 0.00 in0.0 mm 0.00 in0.0 mm 0.00 in0.0 mm
02:30 PM 98.9°F37.2°C 58.0°F14.4°C 26% 3.7 mph SW6.0 kmh SW 13.0 mph20.9 kmh 29.80 in1009.1 mb 0.00 in0.0 mm 0.00 in0.0 mm 0.00 in0.0 mm
02:40 PM 99.3°F37.4°C 59.0°F15.0°C 26% 2.1 mph SW3.4 kmh SW 13.0 mph20.9 kmh 29.80 in1009.1 mb 0.00 in0.0 mm 0.00 in0.0 mm 0.00 in0.0 mm
02:50 PM 99.5°F37.5°C 59.0°F15.0°C 26% 2.5 mph SW4.0 kmh SW 8.0 mph12.9 kmh 29.79 in1008.8 mb 0.00 in0.0 mm 0.00 in0.0 mm 0.00 in0.0 mm
03:00 PM 98.3°F36.8°C 60.0°F15.6°C 28% 4.4 mph SSW7.1 kmh SSW 13.0 mph20.9 kmh 29.79 in1008.8 mb 0.00 in0.0 mm 0.00 in0.0 mm 0.00 in0.0 mm
03:10 PM 99.6°F37.6°C 60.0°F15.6°C 27% 4.2 mph NNW6.8 kmh NNW 13.0 mph20.9 kmh 29.78 in1008.5 mb 0.00 in0.0 mm 0.00 in0.0 mm 0.00 in0.0 mm
03:20 PM 98.8°F37.1°C 61.0°F16.1°C 29% 3.0 mph SW4.8 kmh SW 10.0 mph16.1 kmh 29.78 in1008.5 mb 0.00 in0.0 mm 0.00 in0.0 mm 0.00 in0.0 mm
03:30 PM 98.5°F36.9°C 61.0°F16.1°C 29% 3.1 mph SSW5.0 kmh SSW 10.0 mph16.1 kmh 29.78 in1008.5 mb 0.00 in0.0 mm 0.00 in0.0 mm 0.00 in0.0 mm
03:40 PM 98.8°F37.1°C 61.0°F16.1°C 29% 1.7 mph NW2.7 kmh NW 5.0 mph8.0 kmh 29.77 in1008.1 mb 0.00 in0.0 mm 0.00 in0.0 mm 0.00 in0.0 mm
03:50 PM 98.9°F37.2°C 62.0°F16.7°C 29% 1.8 mph SW2.9 kmh SW 8.0 mph12.9 kmh 29.78 in1008.5 mb 0.00 in0.0 mm 0.00 in0.0 mm 0.00 in0.0 mm
04:00 PM 98.8°F37.1°C 61.0°F16.1°C 29% 4.3 mph SW6.9 kmh SW 13.0 mph20.9 kmh 29.77 in1008.1 mb 0.00 in0.0 mm 0.00 in0.0 mm 0.00 in0.0 mm
04:10 PM 99.5°F37.5°C 61.0°F16.1°C 28% 2.2 mph SSW3.5 kmh SSW 9.0 mph14.5 kmh 29.77 in1008.1 mb 0.00 in0.0 mm 0.00 in0.0 mm 0.00 in0.0 mm
04:20 PM 98.8°F37.1°C 61.0°F16.1°C 29% 2.2 mph SW3.5 kmh SW 9.0 mph14.5 kmh 29.77 in1008.1 mb 0.00 in0.0 mm 0.00 in0.0 mm 0.00 in0.0 mm
04:30 PM 98.9°F37.2°C 62.0°F16.7°C 29% 2.0 mph NW3.2 kmh NW 8.0 mph12.9 kmh 29.76 in1007.8 mb 0.00 in0.0 mm 0.00 in0.0 mm 0.00 in0.0 mm
04:40 PM 98.9°F37.2°C 62.0°F16.7°C 29% 3.3 mph WNW5.3 kmh WNW 14.0 mph22.5 kmh 29.76 in1007.8 mb 0.00 in0.0 mm 0.00 in0.0 mm 0.00 in0.0 mm
04:50 PM 98.4°F36.9°C 61.0°F16.1°C 29% 3.3 mph SSW5.3 kmh SSW 10.0 mph16.1 kmh 29.76 in1007.8 mb 0.00 in0.0 mm 0.00 in0.0 mm 0.00 in0.0 mm
05:00 PM 98.4°F36.9°C 60.0°F15.6°C 28% 3.9 mph SW6.3 kmh SW 9.0 mph14.5 kmh 29.75 in1007.5 mb 0.00 in0.0 mm 0.00 in0.0 mm 0.00 in0.0 mm
05:10 PM 97.3°F36.3°C 60.0°F15.6°C 29% 4.5 mph SW7.2 kmh SW 10.0 mph16.1 kmh 29.76 in1007.8 mb 0.00 in0.0 mm 0.00 in0.0 mm 0.00 in0.0 mm
05:20 PM 97.2°F36.2°C 60.0°F15.6°C 29% 3.7 mph SW6.0 kmh SW 11.0 mph17.7 kmh 29.76 in1007.8 mb 0.00 in0.0 mm 0.00 in0.0 mm 0.00 in0.0 mm
05:30 PM 97.4°F36.3°C 59.0°F15.0°C 28% 3.2 mph S5.1 kmh S 10.0 mph16.1 kmh 29.76 in1007.8 mb 0.00 in0.0 mm 0.00 in0.0 mm 0.00 in0.0 mm
05:40 PM 96.8°F36.0°C 60.0°F15.6°C 29% 3.8 mph WSW6.1 kmh WSW 10.0 mph16.1 kmh 29.76 in1007.8 mb 0.00 in0.0 mm 0.00 in0.0 mm 0.00 in0.0 mm
05:50 PM 97.5°F36.4°C 59.0°F15.0°C 28% 2.4 mph NW3.9 kmh NW 7.0 mph11.3 kmh 29.76 in1007.8 mb 0.00 in0.0 mm 0.00 in0.0 mm 0.00 in0.0 mm
06:00 PM 97.3°F36.3°C 60.0°F15.6°C 29% 2.3 mph SW3.7 kmh SW 11.0 mph17.7 kmh 29.76 in1007.8 mb 0.00 in0.0 mm 0.00 in0.0 mm 0.00 in0.0 mm
06:10 PM 97.0°F36.1°C 60.0°F15.6°C 29% 3.3 mph SSE5.3 kmh SSE 13.0 mph20.9 kmh 29.76 in1007.8 mb 0.00 in0.0 mm 0.00 in0.0 mm 0.00 in0.0 mm
06:20 PM 96.4°F35.8°C 58.0°F14.4°C 28% 5.7 mph SSW9.2 kmh SSW 13.0 mph20.9 kmh 29.77 in1008.1 mb 0.00 in0.0 mm 0.00 in0.0 mm 0.00 in0.0 mm
06:30 PM 96.1°F35.6°C 58.0°F14.4°C 28% 3.4 mph SSW5.5 kmh SSW 10.0 mph16.1 kmh 29.77 in1008.1 mb 0.00 in0.0 mm 0.00 in0.0 mm 0.00 in0.0 mm
06:40 PM 95.9°F35.5°C 58.0°F14.4°C 28% 2.4 mph SSW3.9 kmh SSW 9.0 mph14.5 kmh 29.77 in1008.1 mb 0.00 in0.0 mm 0.00 in0.0 mm 0.00 in0.0 mm
06:50 PM 95.7°F35.4°C 58.0°F14.4°C 28% 2.7 mph SW4.3 kmh SW 8.0 mph12.9 kmh 29.77 in1008.1 mb 0.00 in0.0 mm 0.00 in0.0 mm 0.00 in0.0 mm
07:00 PM 95.4°F35.2°C 57.0°F13.9°C 28% 2.6 mph SW4.2 kmh SW 8.0 mph12.9 kmh 29.77 in1008.1 mb 0.00 in0.0 mm 0.00 in0.0 mm 0.00 in0.0 mm
07:10 PM 95.3°F35.2°C 57.0°F13.9°C 28% 3.8 mph S6.1 kmh S 10.0 mph16.1 kmh 29.78 in1008.5 mb 0.00 in0.0 mm 0.00 in0.0 mm 0.00 in0.0 mm
07:20 PM 94.6°F34.8°C 63.0°F17.2°C 35% 3.0 mph ENE4.8 kmh ENE 8.0 mph12.9 kmh 29.79 in1008.8 mb 0.00 in0.0 mm 0.00 in0.0 mm 0.00 in0.0 mm
07:30 PM 90.4°F32.4°C 64.0°F17.8°C 42% 4.6 mph SE7.4 kmh SE 12.0 mph19.3 kmh 29.79 in1008.8 mb 0.00 in0.0 mm 0.00 in0.0 mm 0.00 in0.0 mm
07:40 PM 88.5°F31.4°C 64.0°F17.8°C 44% 4.8 mph SE7.7 kmh SE 11.0 mph17.7 kmh 29.80 in1009.1 mb 0.00 in0.0 mm 0.00 in0.0 mm 0.00 in0.0 mm
07:50 PM 87.4°F30.8°C 64.0°F17.8°C 45% 5.4 mph SE8.7 kmh SE 11.0 mph17.7 kmh 29.80 in1009.1 mb 0.00 in0.0 mm 0.00 in0.0 mm 0.00 in0.0 mm
08:00 PM 86.9°F30.5°C 64.0°F17.8°C 47% 5.2 mph ESE8.4 kmh ESE 12.0 mph19.3 kmh 29.80 in1009.1 mb 0.00 in0.0 mm 0.00 in0.0 mm 0.00 in0.0 mm
08:10 PM 86.1°F30.1°C 64.0°F17.8°C 48% 4.7 mph SE7.6 kmh SE 16.0 mph25.7 kmh 29.81 in1009.5 mb 0.00 in0.0 mm 0.00 in0.0 mm 0.00 in0.0 mm
08:20 PM 85.5°F29.7°C 64.0°F17.8°C 49% 4.6 mph S7.4 kmh S 13.0 mph20.9 kmh 29.81 in1009.5 mb 0.00 in0.0 mm 0.00 in0.0 mm 0.00 in0.0 mm
08:30 PM 85.3°F29.6°C 64.0°F17.8°C 49% 4.8 mph SSE7.7 kmh SSE 11.0 mph17.7 kmh 29.82 in1009.8 mb 0.00 in0.0 mm 0.00 in0.0 mm 0.00 in0.0 mm
08:40 PM 85.2°F29.6°C 64.0°F17.8°C 49% 5.1 mph SE8.2 kmh SE 12.0 mph19.3 kmh 29.82 in1009.8 mb 0.00 in0.0 mm 0.00 in0.0 mm 0.00 in0.0 mm
08:50 PM 85.0°F29.4°C 64.0°F17.8°C 49% 5.0 mph S8.0 kmh S 12.0 mph19.3 kmh 29.83 in1010.2 mb 0.00 in0.0 mm 0.00 in0.0 mm 0.00 in0.0 mm
09:00 PM 84.8°F29.3°C 64.0°F17.8°C 49% 5.5 mph S8.9 kmh S 12.0 mph19.3 kmh 29.84 in1010.5 mb 0.00 in0.0 mm 0.00 in0.0 mm 0.00 in0.0 mm
09:10 PM 84.6°F29.2°C 63.0°F17.2°C 49% 5.6 mph SE9.0 kmh SE 10.0 mph16.1 kmh 29.84 in1010.5 mb 0.00 in0.0 mm 0.00 in0.0 mm 0.00 in0.0 mm
09:20 PM 84.4°F29.1°C 63.0°F17.2°C 49% 5.2 mph SSE8.4 kmh SSE 12.0 mph19.3 kmh 29.84 in1010.5 mb 0.00 in0.0 mm 0.00 in0.0 mm 0.00 in0.0 mm
09:30 PM 84.4°F29.1°C 63.0°F17.2°C 49% 6.7 mph SE10.8 kmh SE 13.0 mph20.9 kmh 29.85 in1010.8 mb 0.00 in0.0 mm 0.00 in0.0 mm 0.00 in0.0 mm
09:40 PM 84.4°F29.1°C 63.0°F17.2°C 49% 5.5 mph S8.9 kmh S 12.0 mph19.3 kmh 29.85 in1010.8 mb 0.00 in0.0 mm 0.00 in0.0 mm 0.00 in0.0 mm
09:50 PM 84.2°F29.0°C 63.0°F17.2°C 49% 5.5 mph SSE8.9 kmh SSE 12.0 mph19.3 kmh 29.85 in1010.8 mb 0.00 in0.0 mm 0.00 in0.0 mm 0.00 in0.0 mm
10:00 PM 84.1°F28.9°C 63.0°F17.2°C 49% 4.6 mph S7.4 kmh S 10.0 mph16.1 kmh 29.86 in1011.2 mb 0.00 in0.0 mm 0.00 in0.0 mm 0.00 in0.0 mm
10:10 PM 84.0°F28.9°C 63.0°F17.2°C 49% 5.5 mph SE8.9 kmh SE 13.0 mph20.9 kmh 29.86 in1011.2 mb 0.00 in0.0 mm 0.00 in0.0 mm 0.00 in0.0 mm
10:20 PM 84.0°F28.9°C 62.0°F16.7°C 48% 4.6 mph SE7.4 kmh SE 12.0 mph19.3 kmh 29.86 in1011.2 mb 0.00 in0.0 mm 0.00 in0.0 mm 0.00 in0.0 mm
10:30 PM 84.0°F28.9°C 62.0°F16.7°C 48% 4.7 mph SE7.6 kmh SE 11.0 mph17.7 kmh 29.87 in1011.5 mb 0.00 in0.0 mm 0.00 in0.0 mm 0.00 in0.0 mm
10:40 PM 84.1°F28.9°C 62.0°F16.7°C 48% 4.3 mph SSE6.9 kmh SSE 10.0 mph16.1 kmh 29.87 in1011.5 mb 0.00 in0.0 mm 0.00 in0.0 mm 0.00 in0.0 mm
10:50 PM 84.2°F29.0°C 62.0°F16.7°C 48% 4.4 mph S7.1 kmh S 11.0 mph17.7 kmh 29.87 in1011.5 mb 0.00 in0.0 mm 0.00 in0.0 mm 0.00 in0.0 mm
11:00 PM 84.3°F29.1°C 62.0°F16.7°C 48% 3.6 mph SSE5.8 kmh SSE 8.0 mph12.9 kmh 29.87 in1011.5 mb 0.00 in0.0 mm 0.00 in0.0 mm 0.00 in0.0 mm
11:10 PM 84.4°F29.1°C 63.0°F17.2°C 48% 2.8 mph SSE4.5 kmh SSE 7.0 mph11.3 kmh 29.87 in1011.5 mb 0.00 in0.0 mm 0.00 in0.0 mm 0.00 in0.0 mm
11:20 PM 84.3°F29.1°C 62.0°F16.7°C 48% 2.5 mph E4.0 kmh E 7.0 mph11.3 kmh 29.86 in1011.2 mb 0.00 in0.0 mm 0.00 in0.0 mm 0.00 in0.0 mm
11:30 PM 84.2°F29.0°C 62.0°F16.7°C 48% 2.4 mph SE3.9 kmh SE 6.0 mph9.7 kmh 29.87 in1011.5 mb 0.00 in0.0 mm 0.00 in0.0 mm 0.00 in0.0 mm
11:40 PM 84.0°F28.9°C 62.0°F16.7°C 48% 2.2 mph ESE3.5 kmh ESE 7.0 mph11.3 kmh 29.87 in1011.5 mb 0.00 in0.0 mm 0.00 in0.0 mm 0.00 in0.0 mm
11:50 PM 83.8°F28.8°C 63.0°F17.2°C 49% 1.6 mph SSW2.6 kmh SSW 5.0 mph8.0 kmh 29.87 in1011.5 mb 0.00 in0.0 mm 0.00 in0.0 mm 0.00 in0.0 mm